Merced Regional Macready Field
KMCE : now visible

Airfield :











YOU CAN JOIN US ON...

 
LOGIN :

Register | Disclaimer

   EN    FR    IT 

 









Legend :    VFR   Marginal VFR   IFR   Intensive IFR   Very Intensive IFR
Visi :
Ceiling :
>= 8 km
>= 3000ft
5 to 8 km
1000 to 3000 ft
1500m to 5 km
500 to 1000 ft
800 to 1500m
200 to 500 ft
< 800m
< 200 ft
Symbols :   Thunderstorms  Fog  Heavy snow  Heavy precipitations  Wind > 20 kt






- Airport Elevation : 155 ft
- IATA code : MCE


KMCE - Merced Regional Macready Field

CURRENT METAR :
  • 080653Z AUTO 14009KT 10SM SCT047 BKN055 BKN100 13/12 A3001 RMK AO2 SLP161 T01330117

EXPIRED METARs :
  • 080553Z AUTO 14009KT 10SM OVC065 14/12 A2999 RMK AO2 RAB09E19B37E46 SLP157 P0000 60000 T01390122 10183 20139 51013
  • 080453Z AUTO 15012G18KT 10SM BKN049 OVC070 14/12 A2999 RMK AO2 SLP155 T01440122

TAF KMCE
Valid from the 08 at 06:00 until the 09 at 06:00 UTC


080540Z 0806/0906 14010G15KT 6SM -SHRA BKN030 OVC050
FM081100 12006KT 4SM -RA OVC015
FM081800 15007KT P6SM BKN050
PROB30 0818/0823 4SM TSRA OVC040CB
FM082300 36006KT P6SM BKN100
PROB30 0823/0824 P6SM -SHRA BKN050
FM090200 34004KT 6SM BR SKC



MET'MAP, your aeronautical weather chart ! - Copyright ORBIFLY December 2007 - Disclaimer

ORBIFLY MET'MAP TEAM :

Programming & Development : Alexandra Zaïnal
Concept & original design : Baudouin d'Aumeries
Assistance for programming : Marc-Olivier Méhu
Technical & hardware support : Manuel Goepfert

Contact : metmap@orbifly.com




SOURCES & CREDITS :

   NOAA       Earth
Advisory